Time;durP1;ratioP1;P1;durP2;ratioP2;P2;SDS_P1;SDS_P2;PMS_P1;PMS_P2;Temp;Humidity;BMP_temperature;BMP_pressure;BME280_temperature;BME280_humidity;BME280_pressure;Samples;Min_cycle;Max_cycle;Signal;HPM_P1;HPM_P2
2023/10/24 00:02:22;;;;;;;19.40;8.82;;;6.70;99.90;;;5.32;100.00;100871.09;6015485;23;20022;-83
2023/10/24 00:04:48;;;;;;;13.50;7.10;;;6.60;99.90;;;5.32;100.00;100878.06;5986430;23;20503;-82
2023/10/24 00:07:13;;;;;;;16.60;8.00;;;6.60;99.90;;;5.30;100.00;100874.63;6017008;23;20022;-83
2023/10/24 00:09:39;;;;;;;20.38;8.75;;;6.60;99.90;;;5.27;100.00;100862.50;6051921;23;20015;-83
2023/10/24 00:12:14;;;;;;;21.52;8.25;;;6.60;99.90;;;5.27;100.00;100861.63;6019079;23;20021;-84
2023/10/24 00:14:40;;;;;;;19.23;8.00;;;6.50;99.90;;;5.24;100.00;100853.88;6043961;23;20069;-84
2023/10/24 00:17:24;;;;;;;22.05;7.32;;;;;;;5.23;100.00;100845.19;5993514;23;20014;-82
2023/10/24 00:19:55;;;;;;;15.85;7.32;;;6.60;99.90;;;5.21;100.00;100843.50;6033301;23;20018;-83
2023/10/24 00:22:21;;;;;;;15.32;6.72;;;6.60;99.90;;;5.20;100.00;100847.00;5992428;23;20012;-82
2023/10/24 00:24:48;;;;;;;10.73;6.63;;;6.50;99.90;;;5.22;100.00;100840.84;5960231;23;20366;-84
2023/10/24 00:27:14;;;;;;;12.38;5.97;;;6.60;99.90;;;5.26;100.00;100842.50;6042678;23;20028;-83
2023/10/24 00:29:40;;;;;;;13.30;6.50;;;6.60;99.90;;;5.28;100.00;100851.16;5983353;23;20021;-83
2023/10/24 00:32:13;;;;;;;10.70;6.00;;;6.60;99.90;;;5.30;100.00;100840.69;5998825;23;20085;-82
2023/10/24 00:34:39;;;;;;;13.02;6.47;;;6.60;99.90;;;5.33;100.00;100841.47;6026330;23;20086;-82
2023/10/24 00:37:04;;;;;;;14.85;6.15;;;6.60;99.90;;;5.37;100.00;100838.78;6092202;23;20014;-82
2023/10/24 00:39:30;;;;;;;19.13;7.50;;;6.70;99.90;;;5.43;100.00;100843.88;6023669;23;20006;-82
2023/10/24 00:42:05;;;;;;;18.20;8.27;;;6.70;99.90;;;5.43;100.00;100842.13;6107996;23;20097;-82
2023/10/24 00:44:32;;;;;;;16.83;8.95;;;6.70;99.90;;;5.49;100.00;100848.97;6033876;23;20013;-83
2023/10/24 00:46:58;;;;;;;21.83;9.07;;;6.80;99.90;;;5.52;100.00;100847.09;6036075;23;20018;-82
2023/10/24 00:49:30;;;;;;;14.18;7.28;;;6.80;99.90;;;5.54;100.00;100840.09;6060065;23;20379;-82
2023/10/24 00:51:57;;;;;;;22.05;9.18;;;6.80;99.90;;;5.60;100.00;100838.25;6025629;23;20029;-83
2023/10/24 00:54:27;;;;;;;19.05;9.40;;;6.90;99.90;;;5.65;100.00;100842.44;6059157;23;20073;-82
2023/10/24 00:57:04;;;;;;;20.63;9.32;;;6.90;99.90;;;5.69;100.00;100841.47;6058371;23;20069;-82
2023/10/24 00:59:30;;;;;;;27.08;10.60;;;7.00;99.90;;;5.72;100.00;100830.09;6057999;23;20021;-82
2023/10/24 01:01:57;;;;;;;24.67;10.35;;;7.00;99.90;;;5.76;100.00;100837.81;6040352;23;20383;-82
2023/10/24 01:04:35;;;;;;;;;;;;;;;;;;;;;
2023/10/24 01:07:08;;;;;;;25.77;11.65;;;7.10;99.90;;;5.87;100.00;100819.25;6038197;23;20085;-83
2023/10/24 01:09:36;;;;;;;22.88;10.52;;;7.10;99.90;;;5.91;100.00;100823.50;6027195;23;20319;-83
2023/10/24 01:12:03;;;;;;;23.00;10.52;;;7.20;99.90;;;5.95;100.00;100824.31;5993545;23;20022;-84
2023/10/24 01:14:35;;;;;;;20.25;10.77;;;7.20;99.90;;;5.97;100.00;100821.69;6010325;23;20014;-83
2023/10/24 01:17:13;;;;;;;27.75;12.30;;;7.30;99.90;;;6.02;100.00;100819.78;6041087;23;20022;-83
2023/10/24 01:19:39;;;;;;;28.00;10.82;;;7.30;99.90;;;6.05;100.00;100815.34;6040461;23;20022;-83
2023/10/24 01:22:05;;;;;;;21.17;10.88;;;7.40;99.90;;;6.10;100.00;100802.16;6020906;23;20069;-82
2023/10/24 01:24:31;;;;;;;25.65;11.63;;;7.40;99.90;;;6.14;100.00;100806.41;6025080;23;20037;-82
2023/10/24 01:27:00;;;;;;;24.13;11.05;;;7.40;99.90;;;6.15;100.00;100803.75;6024221;23;20082;-83
2023/10/24 01:29:31;;;;;;;29.58;13.77;;;7.40;99.90;;;6.20;100.00;100797.53;6035741;23;20440;-84
2023/10/24 01:31:57;;;;;;;36.80;13.65;;;7.50;99.90;;;6.23;100.00;100800.91;6014219;23;20017;-83
2023/10/24 01:34:22;;;;;;;36.55;14.40;;;7.50;99.90;;;6.26;100.00;100792.13;6029419;23;20444;-82
2023/10/24 01:36:49;;;;;;;32.35;15.23;;;7.60;99.90;;;6.31;100.00;100801.56;6011296;23;20296;-83
2023/10/24 01:39:15;;;;;;;32.58;15.25;;;7.60;99.90;;;6.36;100.00;100799.66;6030230;23;20026;-83
2023/10/24 01:41:49;;;;;;;34.67;14.38;;;7.60;99.90;;;6.43;100.00;100802.13;6060518;23;20006;-83
2023/10/24 01:44:14;;;;;;;40.92;16.00;;;7.70;99.90;;;6.47;100.00;100790.66;5987085;23;20021;-82
2023/10/24 01:46:40;;;;;;;29.40;14.55;;;7.70;99.90;;;6.52;100.00;100779.19;6037773;23;20010;-82
2023/10/24 01:49:06;;;;;;;36.03;16.27;;;7.80;99.90;;;6.59;100.00;100790.34;6026374;23;20475;-83
2023/10/24 01:51:32;;;;;;;35.30;16.23;;;7.90;99.90;;;6.65;100.00;100777.06;6057431;23;20012;-83
2023/10/24 01:54:00;;;;;;;38.25;17.88;;;7.90;99.90;;;6.72;100.00;100781.22;6022442;23;20010;-83
2023/10/24 01:56:28;;;;;;;36.78;16.92;;;8.00;99.90;;;6.80;100.00;100782.72;5975110;23;20054;-82
2023/10/24 01:58:53;;;;;;;37.08;17.95;;;8.00;99.90;;;6.85;100.00;100779.09;6005654;23;20029;-81
2023/10/24 02:01:19;;;;;;;35.92;16.58;;;8.00;99.90;;;6.91;100.00;100770.16;6067208;23;22196;-82
2023/10/24 02:03:45;;;;;;;36.38;16.55;;;8.10;99.90;;;6.95;100.00;100763.94;6036356;23;20017;-82
2023/10/24 02:06:11;;;;;;;34.00;17.27;;;8.20;99.90;;;6.98;100.00;100769.09;6003743;23;20006;-83
2023/10/24 02:08:42;;;;;;;34.53;16.95;;;8.20;99.90;;;7.01;100.00;100771.59;6039757;23;20013;-83
2023/10/24 02:11:07;;;;;;;39.65;17.85;;;8.30;99.90;;;7.08;100.00;100772.28;5998875;23;20125;-82
2023/10/24 02:13:35;;;;;;;40.38;17.35;;;8.30;99.90;;;7.10;100.00;100776.53;6039315;23;20021;-82
2023/10/24 02:16:01;;;;;;;35.03;18.05;;;8.30;99.90;;;7.14;100.00;100783.41;6027188;23;20419;-82
2023/10/24 02:18:27;;;;;;;36.47;17.75;;;8.40;99.90;;;7.17;100.00;100783.31;6037504;23;20013;-82
2023/10/24 02:20:52;;;;;;;39.33;19.17;;;8.40;99.90;;;7.19;100.00;100784.13;6059169;23;20021;-82
2023/10/24 02:23:28;;;;;;;42.80;20.08;;;8.40;99.90;;;7.23;100.00;100782.25;6090934;23;20026;-83
2023/10/24 02:25:56;;;;;;;38.90;18.92;;;8.40;99.90;;;7.28;100.00;100774.25;6005675;23;20029;-82
2023/10/24 02:28:27;;;;;;;47.67;20.95;;;;;;;7.29;100.00;100778.59;6012250;23;20113;-82
2023/10/24 02:30:53;;;;;;;50.03;21.48;;;8.50;99.90;;;7.34;100.00;100776.69;6053354;23;20334;-83
2023/10/24 02:33:19;;;;;;;44.97;20.40;;;8.60;99.90;;;7.36;100.00;100762.66;6058362;23;20081;-81
2023/10/24 02:35:45;;;;;;;51.47;23.27;;;8.60;99.90;;;7.39;100.00;100754.69;6068203;23;20045;-82
2023/10/24 02:38:11;;;;;;;50.58;23.50;;;8.60;99.90;;;7.43;100.00;100754.56;6068303;23;20072;-83
2023/10/24 02:40:52;;;;;;;53.42;22.52;;;8.70;99.90;;;7.51;100.00;100766.50;6010385;23;20026;-83
2023/10/24 02:43:27;;;;;;;57.13;24.67;;;8.70;99.90;;;7.54;100.00;100760.31;5990682;23;20014;-81
2023/10/24 02:45:54;;;;;;;56.50;25.45;;;8.80;99.90;;;7.60;100.00;100763.59;6019870;23;20058;-83
2023/10/24 02:48:20;;;;;;;49.53;25.27;;;8.80;99.90;;;7.66;100.00;100759.03;6013185;23;20092;-83
2023/10/24 02:50:54;;;;;;;50.20;25.27;;;8.90;99.90;;;7.72;100.00;100757.06;6036179;23;20094;-82
2023/10/24 02:53:21;;;;;;;59.78;26.13;;;8.90;99.90;;;7.78;100.00;100750.78;6089627;23;20022;-83
2023/10/24 02:55:47;;;;;;;46.70;25.33;;;9.00;99.90;;;7.82;100.00;100752.38;6047877;23;20025;-83
2023/10/24 02:58:22;;;;;;;49.80;25.70;;;9.10;99.90;;;7.90;100.00;100750.31;6025642;23;20146;-81
2023/10/24 03:00:47;;;;;;;47.92;25.00;;;9.10;99.90;;;7.95;100.00;100743.16;6041965;23;20466;-82
2023/10/24 03:03:13;;;;;;;60.33;26.92;;;9.20;99.90;;;8.01;100.00;100745.56;6048118;23;20133;-82
2023/10/24 03:05:39;;;;;;;54.65;26.98;;;9.20;99.90;;;8.06;100.00;100742.78;6062172;23;20018;-82
2023/10/24 03:08:11;;;;;;;56.05;27.48;;;9.30;99.90;;;8.11;100.00;100740.00;6016326;23;22354;-83
2023/10/24 03:10:41;;;;;;;48.75;27.52;;;9.30;99.90;;;8.17;100.00;100745.03;5987863;23;20037;-83
2023/10/24 03:13:07;;;;;;;56.33;27.98;;;9.40;99.90;;;8.21;100.00;100736.97;5997118;23;20054;-83
2023/10/24 03:15:41;;;;;;;51.05;27.38;;;9.40;99.90;;;8.29;100.00;100736.69;6045243;23;20038;-82
2023/10/24 03:18:07;;;;;;;49.58;26.60;;;9.50;99.90;;;8.32;100.00;100738.34;6005870;23;20076;-81
2023/10/24 03:20:35;;;;;;;43.92;25.98;;;9.50;99.90;;;8.38;100.00;100725.88;5960712;23;20015;-82
2023/10/24 03:23:03;;;;;;;50.10;27.02;;;9.60;99.90;;;8.43;100.00;100724.88;6078833;23;20105;-83
2023/10/24 03:25:31;;;;;;;47.83;26.10;;;9.60;99.90;;;8.47;100.00;100721.22;6020852;23;20073;-82
2023/10/24 03:27:57;;;;;;;49.17;26.75;;;9.70;99.90;;;8.53;100.00;100729.72;6045425;23;20643;-82
2023/10/24 03:30:23;;;;;;;49.47;26.58;;;9.70;99.90;;;8.56;100.00;100723.50;5957683;23;20012;-81
2023/10/24 03:32:48;;;;;;;50.13;26.23;;;9.80;99.90;;;8.60;100.00;100715.44;6002796;23;20022;-81
2023/10/24 03:35:15;;;;;;;51.00;26.90;;;9.80;99.90;;;8.63;100.00;100724.97;6039526;23;20824;-82
2023/10/24 03:37:48;;;;;;;48.17;27.00;;;9.80;99.90;;;8.68;100.00;100712.50;6027684;23;20069;-82
2023/10/24 03:40:14;;;;;;;48.22;25.25;;;9.90;99.90;;;8.72;100.00;100708.00;6001106;23;20014;-82
2023/10/24 03:42:40;;;;;;;45.60;24.52;;;9.90;99.90;;;8.74;100.00;100703.53;5982964;23;20597;-82
2023/10/24 03:45:08;;;;;;;39.80;24.88;;;9.90;99.90;;;8.77;100.00;100698.19;6001551;23;20018;-82
2023/10/24 03:47:38;;;;;;;41.88;24.23;;;10.00;99.90;;;8.81;100.00;100694.50;6018772;23;20039;-81
2023/10/24 03:50:07;;;;;;;43.13;25.80;;;10.00;99.90;;;8.85;100.00;100680.34;5998408;23;20018;-82
2023/10/24 03:52:32;;;;;;;47.53;25.33;;;10.00;99.90;;;8.88;100.00;100682.00;6009970;23;20102;-82
2023/10/24 03:54:59;;;;;;;49.92;26.23;;;;;;;8.88;100.00;100666.25;6002583;23;20022;-82
2023/10/24 03:57:33;;;;;;;49.28;24.90;;;10.10;99.90;;;8.89;100.00;100660.91;6017157;23;20046;-82
2023/10/24 04:00:00;;;;;;;43.47;22.55;;;10.10;99.90;;;8.87;100.00;100667.16;5982551;23;20015;-82
2023/10/24 04:02:25;;;;;;;43.13;23.15;;;10.10;99.90;;;8.88;100.00;100658.38;5968090;23;20030;-82
2023/10/24 04:04:51;;;;;;;38.55;22.45;;;10.10;99.90;;;8.88;100.00;100661.84;5984087;23;20018;-82
2023/10/24 04:07:22;;;;;;;38.30;21.38;;;10.10;99.90;;;8.92;100.00;100654.66;5982601;23;20021;-82
2023/10/24 04:09:48;;;;;;;38.08;22.08;;;10.10;99.90;;;8.94;100.00;100658.97;6014114;23;20511;-82
2023/10/24 04:12:14;;;;;;;38.97;21.73;;;10.10;99.90;;;8.93;100.00;100652.00;6042102;23;20055;-82
2023/10/24 04:14:39;;;;;;;40.10;21.00;;;10.20;99.90;;;8.94;100.00;100647.59;6020948;23;20382;-81
2023/10/24 04:17:05;;;;;;;36.25;20.42;;;10.20;99.90;;;8.97;100.00;100647.47;6009018;23;20018;-80
2023/10/24 04:19:31;;;;;;;40.10;20.73;;;10.20;99.90;;;8.99;100.00;100650.91;6011099;23;20640;-82
2023/10/24 04:21:57;;;;;;;42.08;20.08;;;10.20;99.90;;;8.97;100.00;100664.09;6074552;23;20017;-82
2023/10/24 04:24:32;;;;;;;37.78;21.00;;;10.20;99.90;;;8.96;100.00;100658.88;6022151;23;20081;-81
2023/10/24 04:26:58;;;;;;;33.90;20.88;;;10.20;99.90;;;8.97;100.00;100664.09;5985707;23;20335;-82
2023/10/24 04:29:31;;;;;;;38.13;20.45;;;10.20;99.90;;;8.96;100.00;100662.41;6018692;23;20109;-81
2023/10/24 04:31:59;;;;;;;38.70;21.15;;;10.20;99.90;;;8.98;100.00;100664.94;6014551;23;20834;-82
2023/10/24 04:34:25;;;;;;;39.45;20.90;;;10.20;99.90;;;8.94;100.00;100661.59;6063278;23;20011;-82
2023/10/24 04:36:53;;;;;;;37.83;20.67;;;10.20;99.90;;;8.96;100.00;100661.50;6002027;23;20415;-81
2023/10/24 04:39:24;;;;;;;38.17;21.88;;;10.20;99.90;;;8.92;100.00;100647.69;5998627;23;20010;-82
2023/10/24 04:41:50;;;;;;;37.78;20.80;;;10.10;99.90;;;8.92;100.00;100657.31;6013491;23;20014;-81
2023/10/24 04:44:18;;;;;;;38.75;20.55;;;10.10;99.90;;;8.91;100.00;100652.97;5993042;23;20050;-82
2023/10/24 04:46:44;;;;;;;41.08;21.10;;;10.10;99.90;;;8.89;100.00;100644.31;6065897;23;20003;-82
2023/10/24 04:49:17;;;;;;;39.92;20.63;;;10.10;99.90;;;8.90;100.00;100635.50;5989398;23;20022;-82
2023/10/24 04:51:43;;;;;;;42.80;22.67;;;10.10;99.90;;;8.89;100.00;100624.16;5998585;23;20025;-82
2023/10/24 04:54:09;;;;;;;38.97;20.85;;;10.10;99.90;;;8.88;100.00;100617.19;5999144;23;21564;-81
2023/10/24 04:56:35;;;;;;;39.05;19.55;;;10.10;99.90;;;8.88;100.00;100624.22;6059020;23;20081;-82
2023/10/24 04:59:01;;;;;;;32.72;19.75;;;10.10;99.90;;;8.86;100.00;100624.28;6063128;23;20073;-82
2023/10/24 05:01:37;;;;;;;28.67;18.55;;;10.00;99.90;;;8.81;100.00;100615.72;6004872;23;20017;-81
2023/10/24 05:04:14;;;;;;;29.20;17.77;;;10.00;99.90;;;8.81;100.00;100613.09;5998223;23;20350;-81
2023/10/24 05:06:41;;;;;;;29.05;17.98;;;10.00;99.90;;;8.80;100.00;100604.38;6036880;23;20730;-82
2023/10/24 05:09:07;;;;;;;27.65;17.45;;;10.00;99.90;;;8.78;100.00;100600.97;6010270;23;20073;-81
2023/10/24 05:11:32;;;;;;;33.25;18.80;;;10.00;99.90;;;8.79;100.00;100607.94;6060503;23;20011;-82
2023/10/24 05:14:03;;;;;;;35.63;18.95;;;10.00;99.90;;;8.78;100.00;100616.72;6021897;23;20034;-82
2023/10/24 05:16:28;;;;;;;29.50;17.83;;;10.00;99.90;;;8.79;100.00;100626.31;5984987;23;20018;-82
2023/10/24 05:18:54;;;;;;;33.63;19.33;;;10.00;99.90;;;8.79;100.00;100635.94;5998641;23;20534;-82
2023/10/24 05:21:20;;;;;;;32.35;19.05;;;10.00;99.90;;;8.79;100.00;100633.31;6034099;23;20040;-82
2023/10/24 05:23:46;;;;;;;36.92;19.45;;;10.00;99.90;;;8.79;100.00;100633.31;6072235;23;20026;-81
2023/10/24 05:26:11;;;;;;;30.55;17.55;;;10.00;99.90;;;8.79;100.00;100626.31;6047404;23;20011;-81
2023/10/24 05:28:42;;;;;;;33.25;18.85;;;10.00;99.90;;;8.82;100.00;100627.97;6059136;23;20034;-83
2023/10/24 05:31:08;;;;;;;33.92;18.58;;;10.00;99.90;;;8.85;100.00;100621.72;5993930;23;20022;-82
2023/10/24 05:33:37;;;;;;;29.55;18.65;;;10.00;99.90;;;8.87;100.00;100619.88;6019679;23;20022;-83
2023/10/24 05:36:03;;;;;;;37.00;19.23;;;10.10;99.90;;;8.87;100.00;100612.84;6010824;23;20021;-82
2023/10/24 05:38:31;;;;;;;37.08;19.65;;;10.10;99.90;;;8.89;100.00;100611.03;6022364;23;20351;-81
2023/10/24 05:41:00;;;;;;;37.67;18.80;;;10.10;99.90;;;8.89;100.00;100592.63;5972627;23;20022;-82
2023/10/24 05:43:26;;;;;;;32.03;18.77;;;10.10;99.90;;;8.91;100.00;100592.59;6001220;23;20336;-82
2023/10/24 05:45:52;;;;;;;37.22;19.23;;;10.10;99.90;;;8.90;100.00;100581.22;6000904;23;20022;-82
2023/10/24 05:48:21;;;;;;;39.88;17.83;;;10.10;99.90;;;8.92;100.00;100583.78;6035475;23;20006;-82
2023/10/24 05:50:54;;;;;;;27.15;16.45;;;10.10;99.90;;;8.92;100.00;100586.41;5965873;23;20015;-81
2023/10/24 05:53:20;;;;;;;29.67;17.23;;;10.10;99.90;;;8.94;100.00;100587.19;6015899;23;20202;-80
2023/10/24 05:55:46;;;;;;;33.50;17.45;;;10.20;99.90;;;8.95;100.00;100583.66;5986066;23;20463;-81
2023/10/24 05:58:11;;;;;;;33.92;16.58;;;10.20;99.90;;;8.95;100.00;100583.66;5996140;23;20022;-82
2023/10/24 06:00:46;;;;;;;28.35;17.10;;;10.20;99.90;;;8.98;100.00;100591.41;5978760;23;20014;-80
2023/10/24 06:03:11;;;;;;;30.95;17.20;;;10.20;99.90;;;8.97;100.00;100580.06;5990338;23;20089;-82
2023/10/24 06:05:37;;;;;;;25.08;15.68;;;10.20;99.90;;;8.99;100.00;100588.72;6022262;23;20013;-81
2023/10/24 06:08:04;;;;;;;26.13;17.02;;;10.20;99.90;;;9.02;100.00;100585.94;6008135;23;20018;-81
2023/10/24 06:10:37;;;;;;;29.83;17.23;;;10.20;99.90;;;9.05;100.00;100590.25;6031570;23;20014;-82
2023/10/24 06:13:03;;;;;;;34.08;17.27;;;10.30;99.90;;;9.06;100.00;100588.47;5995095;23;20025;-81
2023/10/24 06:15:29;;;;;;;29.63;16.35;;;10.30;99.90;;;9.07;100.00;100590.16;5976595;23;21255;-80
2023/10/24 06:17:57;;;;;;;29.58;17.70;;;10.30;99.90;;;9.11;100.00;100587.34;6030729;23;20019;-82
2023/10/24 06:20:30;;;;;;;27.95;15.68;;;10.30;99.90;;;9.14;100.00;100584.59;6021516;23;20414;-82
2023/10/24 06:22:58;;;;;;;25.92;16.75;;;10.40;99.90;;;9.21;100.00;100585.19;5967365;23;20372;-82
2023/10/24 06:25:24;;;;;;;31.17;16.40;;;10.40;99.90;;;9.18;100.00;100577.44;6013836;23;20018;-82
2023/10/24 06:27:54;;;;;;;28.60;15.60;;;10.40;99.90;;;9.20;100.00;100576.44;6009681;23;20010;-81
2023/10/24 06:30:20;;;;;;;33.97;17.48;;;10.40;99.90;;;9.26;100.00;100577.09;5997791;23;20694;-81
2023/10/24 06:32:45;;;;;;;30.45;16.48;;;10.50;99.90;;;9.30;100.00;100568.16;6036462;23;20412;-80
2023/10/24 06:35:13;;;;;;;26.67;16.48;;;10.50;99.90;;;9.33;100.00;100571.50;6069195;23;20054;-80
2023/10/24 06:37:39;;;;;;;33.15;17.50;;;10.50;99.90;;;9.35;100.00;100558.28;6022603;23;20011;-83
2023/10/24 06:40:12;;;;;;;28.90;16.30;;;10.50;99.90;;;9.39;100.00;100555.44;6062139;23;20010;-81
2023/10/24 06:42:38;;;;;;;33.25;17.58;;;10.60;99.90;;;9.43;100.00;100553.56;6067410;23;20102;-80
2023/10/24 06:45:13;;;;;;;27.25;17.98;;;10.60;99.90;;;9.44;100.00;100561.38;6025888;23;20398;-82
2023/10/24 06:47:40;;;;;;;32.65;19.50;;;10.70;99.90;;;9.51;100.00;100547.97;6024953;23;21826;-81
2023/10/24 06:50:07;;;;;;;33.22;19.90;;;10.70;99.90;;;9.57;100.00;100538.03;6024069;23;20055;-82
2023/10/24 06:52:33;;;;;;;33.38;19.80;;;10.70;99.90;;;9.58;100.00;100541.50;6045857;23;20050;-81
2023/10/24 06:54:59;;;;;;;31.70;18.92;;;10.80;99.90;;;9.64;100.00;100543.84;6047363;23;20037;-80
2023/10/24 06:57:28;;;;;;;32.45;19.52;;;10.80;99.90;;;9.69;100.00;100541.00;6044635;23;20011;-81
2023/10/24 06:59:55;;;;;;;30.52;19.67;;;10.90;99.90;;;9.74;100.00;100544.28;6034512;23;20743;-81
2023/10/24 07:02:21;;;;;;;28.70;18.58;;;10.90;99.90;;;9.78;100.00;100544.09;5986221;23;20016;-81
2023/10/24 07:04:46;;;;;;;28.60;19.25;;;11.00;99.90;;;9.83;100.00;100544.72;6022783;23;20411;-80
2023/10/24 07:07:12;;;;;;;38.08;19.95;;;11.00;99.90;;;9.87;100.00;100524.41;6057433;23;20025;-80
2023/10/24 07:09:38;;;;;;;33.67;18.27;;;11.00;99.90;;;9.88;100.00;100526.09;6046184;23;20017;-82
2023/10/24 07:12:11;;;;;;;30.45;19.50;;;11.10;99.90;;;9.92;100.00;100532.06;6029935;23;20109;-81
2023/10/24 07:14:37;;;;;;;32.10;19.55;;;11.10;99.90;;;9.96;100.00;100516.06;6044211;23;20111;-81
2023/10/24 07:17:03;;;;;;;28.25;18.98;;;11.10;99.90;;;10.01;100.00;100510.59;6008148;23;20018;-81
2023/10/24 07:19:29;;;;;;;35.33;19.50;;;11.20;99.90;;;10.06;100.00;100505.94;5980927;23;20360;-81
2023/10/24 07:21:54;;;;;;;29.23;19.40;;;11.20;99.90;;;10.10;100.00;100509.28;6010414;23;20022;-81
2023/10/24 07:24:26;;;;;;;33.78;19.88;;;11.30;99.90;;;10.14;100.00;100498.53;6028432;23;20046;-81
2023/10/24 07:26:51;;;;;;;30.20;19.27;;;11.30;99.90;;;10.13;100.00;100494.22;5991837;23;21957;-81
2023/10/24 07:29:19;;;;;;;32.00;17.55;;;11.30;99.90;;;10.15;100.00;100496.75;5965566;23;20483;-81
2023/10/24 07:31:47;;;;;;;29.02;19.20;;;11.30;99.90;;;10.14;100.00;100495.06;6029358;23;20014;-83
2023/10/24 07:34:18;;;;;;;27.88;18.55;;;11.30;99.90;;;10.11;100.00;100487.31;6030380;23;20014;-82
2023/10/24 07:36:44;;;;;;;30.85;19.65;;;11.30;99.90;;;10.18;100.00;100494.84;6000598;23;20403;-83
2023/10/24 07:39:09;;;;;;;32.80;20.60;;;11.40;99.90;;;10.22;100.00;100490.28;6014330;23;20014;-82
2023/10/24 07:41:35;;;;;;;24.00;13.00;;;11.40;99.90;;;10.23;100.00;100494.59;6001108;23;20010;-80
2023/10/24 07:44:01;;;;;;;35.28;19.17;;;11.40;99.90;;;10.30;100.00;100474.97;6009285;23;20015;-81
2023/10/24 07:46:44;;;;;;;35.60;19.02;;;11.50;99.90;;;10.37;100.00;100463.25;6019397;23;20610;-81
2023/10/24 07:49:15;;;;;;;28.10;16.92;;;11.50;99.90;;;10.41;100.00;100458.66;6003399;23;20081;-82
2023/10/24 07:51:41;;;;;;;29.17;18.42;;;11.60;99.90;;;10.39;100.00;100466.66;5994681;23;20564;-82
2023/10/24 07:54:07;;;;;;;25.42;17.95;;;11.60;99.90;;;10.43;100.00;100465.56;5969644;23;20038;-81
2023/10/24 07:56:32;;;;;;;25.15;16.98;;;11.60;99.90;;;10.42;100.00;100450.69;5990910;23;20475;-80
2023/10/24 07:58:59;;;;;;;27.55;17.65;;;11.60;99.90;;;10.44;100.00;100454.09;6037550;23;20349;-81
2023/10/24 08:01:32;;;;;;;24.70;16.83;;;11.60;99.90;;;10.48;100.00;100451.34;6048146;23;21350;-81
2023/10/24 08:03:59;;;;;;;24.92;16.67;;;11.70;99.90;;;10.54;100.00;100470.28;6071276;23;20024;-81
2023/10/24 08:06:26;;;;;;;25.63;15.30;;;11.70;99.90;;;10.52;100.00;100468.66;6030489;23;20029;-82
2023/10/24 08:08:51;;;;;;;27.80;16.92;;;11.70;99.90;;;10.55;100.00;100479.88;6021994;23;20078;-82
2023/10/24 08:11:22;;;;;;;29.50;16.10;;;11.70;99.90;;;10.60;100.00;100488.38;6036686;23;20014;-81
2023/10/24 08:13:50;;;;;;;23.05;15.90;;;11.80;99.90;;;10.62;100.00;100497.06;6019130;23;20029;-82
2023/10/24 08:16:17;;;;;;;26.98;16.88;;;11.80;99.90;;;10.66;100.00;100484.59;5977582;23;20022;-81
2023/10/24 08:18:44;;;;;;;30.02;15.35;;;11.80;99.90;;;10.65;100.00;100481.13;6004086;23;20022;-81
2023/10/24 08:21:20;;;;;;;;;;;;;;;;;;;;;
2023/10/24 08:23:46;;;;;;;27.73;14.45;;;11.80;99.90;;;10.67;100.00;100470.53;6023109;23;20181;-81
2023/10/24 08:26:12;;;;;;;23.00;15.25;;;11.80;99.90;;;10.72;100.00;100465.88;5989384;23;20018;-81
2023/10/24 08:28:43;;;;;;;21.80;13.23;;;11.90;99.90;;;10.73;100.00;100472.81;6027860;23;20526;-83
2023/10/24 08:31:09;;;;;;;25.20;13.88;;;11.90;99.90;;;10.73;100.00;100471.97;6026887;23;20022;-81
2023/10/24 08:33:34;;;;;;;23.52;13.18;;;11.90;99.90;;;10.75;100.00;100478.03;6024777;23;20029;-82
2023/10/24 08:36:00;;;;;;;20.90;12.48;;;11.90;99.90;;;10.76;100.00;100471.84;6012411;23;20053;-82
2023/10/24 08:38:26;;;;;;;17.25;11.88;;;11.90;99.90;;;10.76;100.00;100480.59;6023515;23;20018;-81
2023/10/24 08:40:51;;;;;;;24.70;12.13;;;11.90;99.90;;;10.81;100.00;100475.91;6026055;23;20105;-82
2023/10/24 08:43:23;;;;;;;19.30;11.48;;;12.00;99.90;;;10.81;100.00;100482.97;5997621;23;20344;-82
2023/10/24 08:45:50;;;;;;;17.45;10.70;;;11.90;99.90;;;10.74;100.00;100485.06;5999932;23;20015;-81
2023/10/24 08:48:17;;;;;;;17.92;11.98;;;11.90;99.90;;;10.77;100.00;100489.31;6063676;23;20018;-82
2023/10/24 08:50:44;;;;;;;18.50;10.88;;;11.90;99.90;;;10.74;100.00;100479.81;6018192;23;20015;-82
2023/10/24 08:53:13;;;;;;;16.05;9.45;;;11.90;99.90;;;10.73;100.00;100483.34;6053314;23;20750;-82
2023/10/24 08:55:46;;;;;;;14.43;10.82;;;11.90;99.90;;;10.73;100.00;100478.09;6061893;23;20010;-80
2023/10/24 08:58:19;;;;;;;16.30;10.65;;;11.90;99.90;;;10.78;100.00;100477.88;5995709;23;20074;-81
2023/10/24 09:00:47;;;;;;;21.30;11.73;;;11.90;99.90;;;10.80;100.00;100463.69;6047565;23;20002;-81
2023/10/24 09:03:16;;;;;;;22.50;12.20;;;12.00;99.90;;;10.83;100.00;100468.78;6036283;23;20022;-82
2023/10/24 09:05:47;;;;;;;16.25;10.30;;;12.00;99.90;;;10.84;100.00;100459.09;6039559;23;20026;-81
2023/10/24 09:08:20;;;;;;;19.95;11.50;;;12.00;99.90;;;10.84;100.00;100459.97;6029605;23;20010;-82
2023/10/24 09:10:54;;;;;;;17.55;11.35;;;12.00;99.90;;;10.77;100.00;100469.09;6016334;23;20359;-82
2023/10/24 09:13:20;;;;;;;16.08;11.93;;;11.90;99.90;;;10.70;100.00;100467.72;6042376;23;20026;-81
2023/10/24 09:16:06;;;;;;;21.67;11.52;;;11.90;99.90;;;10.73;100.00;100464.06;6035688;23;20030;-82
2023/10/24 09:18:40;;;;;;;20.10;10.32;;;11.80;99.90;;;10.69;100.00;100460.78;6034982;23;20086;-82
2023/10/24 09:21:08;;;;;;;21.35;12.45;;;11.90;99.90;;;10.71;100.00;100444.88;6035505;23;20158;-82
2023/10/24 09:23:40;;;;;;;22.23;12.32;;;11.90;99.90;;;10.75;100.00;100438.50;6034335;23;20094;-81
2023/10/24 09:26:08;;;;;;;18.75;12.02;;;11.90;99.90;;;10.75;100.00;100434.09;6022574;23;20010;-82
2023/10/24 09:28:41;;;;;;;21.10;10.32;;;11.90;99.90;;;10.68;100.00;100424.81;6007874;23;20018;-82
2023/10/24 09:31:10;;;;;;;15.02;10.63;;;11.90;99.90;;;10.68;100.00;100415.13;6021674;23;20030;-82
2023/10/24 09:33:36;;;;;;;19.77;10.95;;;11.90;99.90;;;10.65;100.00;100417.09;6051391;23;20467;-82
2023/10/24 09:36:02;;;;;;;21.83;10.95;;;11.90;99.90;;;10.66;100.00;100414.34;6091692;23;20010;-81
2023/10/24 09:38:42;;;;;;;22.35;11.98;;;11.80;99.90;;;10.66;100.00;100410.88;6035896;23;20122;-82
2023/10/24 09:41:16;;;;;;;17.75;11.88;;;11.80;99.90;;;10.67;100.00;100404.69;6021665;23;20423;-82
2023/10/24 09:43:48;;;;;;;17.48;11.38;;;11.90;99.90;;;10.66;100.00;100397.72;5930835;23;20093;-81
2023/10/24 09:46:24;;;;;;;16.52;10.02;;;11.90;99.90;;;10.72;100.00;100389.50;6005126;23;20024;-81
2023/10/24 09:49:00;;;;;;;20.00;11.57;;;11.90;99.90;;;10.74;100.00;100382.38;6013873;23;20470;-81
2023/10/24 09:51:36;;;;;;;;;;;;;;;;;;;;;
2023/10/24 09:54:05;;;;;;;13.95;9.88;;;11.90;99.90;;;10.74;100.00;100386.78;6047885;23;20014;-82
2023/10/24 09:56:34;;;;;;;22.15;11.55;;;11.90;99.90;;;10.79;100.00;100385.59;5957274;23;20057;-81
2023/10/24 09:59:07;;;;;;;21.67;12.95;;;12.00;99.90;;;10.83;100.00;100384.50;6002273;23;20018;-81
2023/10/24 10:01:39;;;;;;;22.45;13.30;;;12.00;99.90;;;10.86;100.00;100378.22;6024923;23;20038;-82
2023/10/24 10:04:15;;;;;;;19.17;11.82;;;12.00;99.90;;;10.91;100.00;100378.84;6033602;23;20097;-81
2023/10/24 10:06:51;;;;;;;16.35;12.38;;;12.10;99.90;;;10.91;100.00;100380.59;6038499;23;20010;-82
2023/10/24 10:09:19;;;;;;;21.38;12.65;;;12.10;99.90;;;10.97;100.00;100369.75;5987979;23;20022;-81
2023/10/24 10:12:04;;;;;;;17.50;10.85;;;12.10;99.90;;;10.99;100.00;100370.50;5997644;23;20026;-81